createdAt,value
2022-11-29T00:01:01.374Z,3.77
2022-11-29T00:04:03.180Z,3.74
2022-11-29T00:07:04.624Z,3.71
2022-11-29T00:10:06.787Z,3.69
2022-11-29T00:13:08.251Z,3.68
2022-11-29T00:16:11.342Z,3.64
2022-11-29T00:19:13.604Z,3.64
2022-11-29T00:22:15.045Z,3.62
2022-11-29T00:25:16.629Z,3.64
2022-11-29T00:28:18.200Z,3.64
2022-11-29T00:31:37.574Z,3.73
2022-11-29T00:34:39.028Z,3.73
2022-11-29T00:37:40.431Z,3.78
2022-11-29T00:40:41.941Z,3.80
2022-11-29T00:43:44.107Z,3.77
2022-11-29T00:46:45.604Z,3.80
2022-11-29T00:49:47.072Z,3.79
2022-11-29T00:52:48.731Z,3.78
2022-11-29T00:55:53.812Z,3.80
2022-11-29T00:58:55.369Z,3.77
2022-11-29T01:01:57.044Z,3.79
2022-11-29T01:04:58.580Z,3.79
2022-11-29T01:08:00.263Z,3.78
2022-11-29T01:11:07.394Z,3.77
2022-11-29T01:14:10.428Z,3.78
2022-11-29T01:17:11.895Z,3.77
2022-11-29T01:20:13.760Z,3.78
2022-11-29T01:23:15.193Z,3.76
2022-11-29T01:26:23.617Z,3.73
2022-11-29T01:29:25.109Z,3.68
2022-11-29T01:32:26.817Z,3.68
2022-11-29T01:35:28.289Z,3.65
2022-11-29T01:38:29.755Z,3.65
2022-11-29T01:41:33.422Z,3.67
2022-11-29T01:44:34.848Z,3.65
2022-11-29T01:47:41.300Z,3.65
2022-11-29T01:50:43.045Z,3.61
2022-11-29T01:53:44.598Z,3.58
2022-11-29T01:56:48.819Z,3.56
2022-11-29T01:59:52.240Z,3.56
2022-11-29T02:03:20.247Z,3.56
2022-11-29T02:06:22.539Z,3.54
2022-11-29T02:09:24.018Z,3.52
2022-11-29T02:12:43.709Z,3.53
2022-11-29T02:16:07.166Z,3.58
2022-11-29T02:19:45.181Z,3.61
2022-11-29T02:23:23.219Z,3.60
2022-11-29T02:26:54.977Z,3.58
2022-11-29T02:30:34.989Z,3.55
2022-11-29T02:34:02.888Z,3.55
2022-11-29T02:37:23.186Z,3.56
2022-11-29T02:40:55.156Z,3.57
2022-11-29T02:44:21.504Z,3.58
2022-11-29T02:47:48.747Z,3.59
2022-11-29T02:51:06.742Z,3.58
2022-11-29T02:54:14.178Z,3.60
2022-11-29T02:57:25.658Z,3.60
2022-11-29T03:00:28.196Z,3.60
2022-11-29T03:03:38.843Z,3.64
2022-11-29T03:07:05.775Z,3.65
2022-11-29T03:10:28.876Z,3.73
2022-11-29T03:13:51.390Z,3.79
2022-11-29T03:17:02.858Z,3.83
2022-11-29T03:20:37.448Z,3.87
2022-11-29T03:23:45.624Z,3.91
2022-11-29T03:26:57.514Z,4.00
2022-11-29T03:30:01.614Z,4.05
2022-11-29T03:33:16.936Z,4.04
2022-11-29T03:36:45.865Z,4.08
2022-11-29T03:40:01.744Z,4.09
2022-11-29T03:43:11.136Z,4.10
2022-11-29T03:46:18.614Z,4.09
2022-11-29T03:50:09.596Z,4.11
2022-11-29T03:53:23.635Z,4.14
2022-11-29T03:56:34.754Z,4.16
2022-11-29T03:59:59.195Z,4.17
2022-11-29T04:03:12.787Z,4.23
2022-11-29T04:06:30.399Z,4.25
2022-11-29T04:09:51.052Z,4.28
2022-11-29T04:13:35.996Z,4.32
2022-11-29T04:17:18.714Z,4.34
2022-11-29T04:20:44.201Z,4.39
2022-11-29T04:24:27.155Z,4.41
2022-11-29T04:27:34.663Z,4.42
2022-11-29T04:30:55.956Z,4.46
2022-11-29T04:34:12.425Z,4.50
2022-11-29T04:37:19.893Z,4.51
2022-11-29T04:40:40.327Z,4.53
2022-11-29T04:44:02.167Z,4.57
2022-11-29T04:47:25.724Z,4.61
2022-11-29T04:50:36.063Z,4.65
2022-11-29T04:53:37.464Z,4.65
2022-11-29T04:56:54.075Z,4.66
2022-11-29T05:00:19.322Z,4.67
2022-11-29T05:03:52.546Z,4.70
2022-11-29T05:07:07.504Z,4.72
2022-11-29T05:10:37.115Z,4.72
2022-11-29T05:13:56.882Z,4.75
2022-11-29T05:17:10.373Z,4.78
2022-11-29T05:20:38.488Z,4.81
2022-11-29T05:23:55.106Z,4.83
2022-11-29T05:27:18.281Z,4.86
2022-11-29T05:30:25.297Z,4.97
2022-11-29T05:33:45.059Z,4.94
2022-11-29T05:37:01.190Z,4.93
2022-11-29T05:40:21.536Z,4.91
2022-11-29T05:43:41.045Z,4.91
2022-11-29T05:46:55.158Z,4.85
2022-11-29T05:50:20.981Z,4.84
2022-11-29T05:53:44.055Z,4.83
2022-11-29T05:57:06.824Z,4.85
2022-11-29T06:00:11.486Z,4.88
2022-11-29T06:03:24.611Z,4.92
2022-11-29T06:06:30.219Z,4.96
2022-11-29T06:09:45.588Z,4.96
2022-11-29T06:13:23.219Z,4.98
2022-11-29T06:17:02.162Z,5.00
2022-11-29T06:20:26.369Z,5.01
2022-11-29T06:23:43.051Z,5.02
2022-11-29T06:27:14.094Z,5.03
2022-11-29T06:30:22.381Z,5.06
2022-11-29T06:33:31.266Z,5.10
2022-11-29T06:36:54.068Z,5.08
2022-11-29T06:39:55.789Z,5.08
2022-11-29T06:42:57.211Z,5.08
2022-11-29T06:46:05.839Z,5.11
2022-11-29T06:49:29.349Z,5.09
2022-11-29T06:52:50.999Z,5.10
2022-11-29T06:55:55.511Z,5.11
2022-11-29T06:59:14.296Z,5.15
2022-11-29T07:02:38.070Z,5.17
2022-11-29T07:05:40.137Z,5.17
2022-11-29T07:08:42.771Z,5.18
2022-11-29T07:11:45.826Z,5.19
2022-11-29T07:14:47.914Z,5.20
2022-11-29T07:18:14.414Z,5.17
2022-11-29T07:21:31.663Z,5.12
2022-11-29T07:24:47.096Z,5.07
2022-11-29T07:27:54.210Z,5.07
2022-11-29T07:31:05.105Z,5.05
2022-11-29T07:34:21.632Z,5.06
2022-11-29T07:37:50.090Z,5.08
2022-11-29T07:41:18.044Z,5.12
2022-11-29T07:44:35.168Z,5.11
2022-11-29T07:47:36.632Z,5.17
2022-11-29T07:50:39.155Z,5.18
2022-11-29T07:53:43.096Z,5.20
2022-11-29T07:56:44.550Z,5.27
2022-11-29T07:59:46.135Z,5.26
2022-11-29T08:02:49.084Z,5.27
2022-11-29T08:05:50.491Z,5.27
2022-11-29T08:08:51.952Z,5.28
2022-11-29T08:11:53.419Z,5.29
2022-11-29T08:14:54.932Z,5.32
2022-11-29T08:17:56.442Z,5.32
2022-11-29T08:20:57.952Z,5.33
2022-11-29T08:23:59.372Z,5.36
2022-11-29T08:27:00.865Z,5.39
2022-11-29T08:30:02.891Z,5.47
2022-11-29T08:33:04.402Z,5.50
2022-11-29T08:36:09.892Z,5.50
2022-11-29T08:39:11.455Z,5.45
2022-11-29T08:42:12.911Z,5.49
2022-11-29T08:45:14.319Z,5.49
2022-11-29T08:48:15.782Z,5.62
2022-11-29T08:51:17.242Z,5.65
2022-11-29T08:54:18.731Z,5.69
2022-11-29T09:00:44.122Z,5.80
2022-11-29T09:03:46.822Z,5.80
2022-11-29T09:06:48.224Z,5.86
2022-11-29T09:09:49.647Z,5.84
2022-11-29T09:12:51.083Z,5.89
2022-11-29T09:15:52.599Z,5.97
2022-11-29T09:18:54.491Z,6.03
2022-11-29T09:21:55.962Z,5.93
2022-11-29T09:24:57.407Z,5.98
2022-11-29T09:27:59.412Z,6.00
2022-11-29T09:31:05.739Z,6.03
2022-11-29T09:34:07.296Z,6.10
2022-11-29T09:37:08.765Z,6.09
2022-11-29T09:40:23.295Z,6.26
2022-11-29T09:43:33.770Z,6.39
2022-11-29T09:46:58.736Z,6.53
2022-11-29T09:50:19.178Z,6.50
2022-11-29T09:53:35.811Z,6.37
2022-11-29T09:56:45.804Z,6.39
2022-11-29T09:59:52.425Z,6.41
2022-11-29T10:03:00.974Z,6.38
2022-11-29T10:06:11.590Z,6.35
2022-11-29T10:09:30.853Z,6.57
2022-11-29T10:12:40.946Z,6.51
2022-11-29T10:15:45.586Z,6.53
2022-11-29T10:18:58.613Z,6.61
2022-11-29T10:22:27.775Z,6.57
2022-11-29T10:25:37.459Z,6.46
2022-11-29T10:28:42.655Z,6.35
2022-11-29T10:31:46.324Z,6.61
2022-11-29T10:34:49.468Z,6.72
2022-11-29T10:38:22.669Z,6.76
2022-11-29T10:41:21.935Z,6.68
2022-11-29T10:44:24.361Z,6.69
2022-11-29T10:47:26.116Z,6.93
2022-11-29T10:50:30.935Z,7.22
2022-11-29T10:53:37.192Z,7.38
2022-11-29T10:56:39.242Z,7.53
2022-11-29T10:59:41.137Z,7.64
2022-11-29T11:02:42.655Z,7.65
2022-11-29T11:05:59.336Z,7.66
2022-11-29T11:09:30.125Z,7.57
2022-11-29T11:12:35.323Z,7.54
2022-11-29T11:15:37.189Z,7.45
2022-11-29T11:18:38.697Z,7.34
2022-11-29T11:21:40.188Z,7.53
2022-11-29T11:24:44.084Z,7.69
2022-11-29T11:27:46.282Z,7.72
2022-11-29T11:31:03.075Z,7.90
2022-11-29T11:34:24.712Z,8.05
2022-11-29T11:37:33.384Z,8.34
2022-11-29T11:40:34.888Z,8.08
2022-11-29T11:43:37.990Z,7.95
2022-11-29T11:46:48.228Z,7.84
2022-11-29T11:49:55.897Z,7.78
2022-11-29T11:53:05.000Z,7.81
2022-11-29T11:56:10.254Z,7.71
2022-11-29T11:59:23.807Z,7.76
2022-11-29T12:02:40.420Z,8.03
2022-11-29T12:05:44.922Z,8.30
2022-11-29T12:08:49.205Z,8.56
2022-11-29T12:12:02.783Z,8.53
2022-11-29T12:15:08.483Z,8.36
2022-11-29T12:18:14.484Z,8.11
2022-11-29T12:21:21.319Z,8.00
2022-11-29T12:24:38.938Z,8.07
2022-11-29T12:27:40.412Z,8.18
2022-11-29T12:30:50.417Z,8.23
2022-11-29T12:34:22.169Z,8.43
2022-11-29T12:37:48.353Z,8.40
2022-11-29T12:41:19.783Z,8.44
2022-11-29T12:44:46.035Z,8.24
2022-11-29T12:48:10.684Z,8.23
2022-11-29T12:52:09.399Z,8.22
2022-11-29T12:55:33.941Z,8.12
2022-11-29T12:59:11.125Z,7.90
2022-11-29T13:02:21.621Z,7.79
2022-11-29T13:06:11.951Z,7.87
2022-11-29T13:09:46.924Z,7.87
2022-11-29T13:12:53.744Z,7.89
2022-11-29T13:16:07.922Z,7.86
2022-11-29T13:19:18.343Z,7.93
2022-11-29T13:22:39.086Z,8.09
2022-11-29T13:25:43.960Z,8.11
2022-11-29T13:28:45.846Z,7.92
2022-11-29T13:31:47.979Z,7.88
2022-11-29T13:34:51.794Z,7.87
2022-11-29T13:38:00.988Z,7.84
2022-11-29T13:41:16.430Z,7.84
2022-11-29T13:44:45.792Z,7.80
2022-11-29T13:47:52.265Z,7.79
2022-11-29T13:50:54.789Z,7.77
2022-11-29T13:53:59.461Z,7.71
2022-11-29T13:57:07.586Z,7.54
2022-11-29T14:00:27.864Z,7.64
2022-11-29T14:03:33.355Z,7.55
2022-11-29T14:06:37.156Z,7.35
2022-11-29T14:09:48.338Z,7.31
2022-11-29T14:12:55.850Z,7.24
2022-11-29T14:16:01.672Z,7.26
2022-11-29T14:19:09.486Z,7.43
2022-11-29T14:22:19.242Z,7.41
2022-11-29T14:25:50.584Z,7.41
2022-11-29T14:28:47.148Z,7.40
2022-11-29T14:31:51.280Z,7.32
2022-11-29T14:35:19.979Z,7.27
2022-11-29T14:38:31.278Z,7.18
2022-11-29T14:41:51.155Z,7.15
2022-11-29T14:44:55.348Z,7.10
2022-11-29T14:47:57.208Z,7.07
2022-11-29T14:51:32.291Z,7.09
2022-11-29T14:54:34.173Z,7.11
2022-11-29T14:57:47.540Z,7.05
2022-11-29T15:00:48.947Z,7.05
2022-11-29T15:03:50.671Z,7.03
2022-11-29T15:06:55.820Z,6.98
2022-11-29T15:10:04.002Z,6.98
2022-11-29T15:13:09.992Z,6.93
2022-11-29T15:16:56.333Z,6.90
2022-11-29T15:20:15.069Z,6.89
2022-11-29T15:23:18.483Z,6.89
2022-11-29T15:26:20.924Z,6.84
2022-11-29T15:29:22.856Z,6.81
2022-11-29T15:32:27.763Z,6.80
2022-11-29T15:35:29.981Z,6.70
2022-11-29T15:38:44.931Z,6.61
2022-11-29T15:41:46.356Z,6.55
2022-11-29T15:44:48.444Z,6.50
2022-11-29T15:47:50.235Z,6.43
2022-11-29T15:51:07.075Z,6.37
2022-11-29T15:54:13.602Z,6.34
2022-11-29T15:57:25.152Z,6.26
2022-11-29T16:00:27.044Z,6.17
2022-11-29T16:03:32.538Z,6.05
2022-11-29T16:06:41.064Z,5.98
2022-11-29T16:09:47.139Z,5.97
2022-11-29T16:12:50.781Z,5.94
2022-11-29T16:16:09.029Z,5.82
2022-11-29T16:19:21.408Z,5.73
2022-11-29T16:22:23.773Z,5.74
2022-11-29T16:25:25.367Z,5.72
2022-11-29T16:28:32.716Z,5.67
2022-11-29T16:31:38.224Z,5.56
2022-11-29T16:34:43.305Z,5.45
2022-11-29T16:37:46.340Z,5.31
2022-11-29T16:41:04.928Z,5.25
2022-11-29T16:44:41.713Z,5.18
2022-11-29T16:47:51.866Z,5.12
2022-11-29T16:51:12.496Z,5.07
2022-11-29T16:54:22.774Z,4.99
2022-11-29T17:04:23.934Z,4.57
2022-11-29T17:07:29.862Z,4.44
2022-11-29T17:10:31.330Z,4.26
2022-11-29T17:13:33.757Z,4.08
2022-11-29T17:16:35.251Z,3.92
2022-11-29T17:19:36.810Z,3.78
2022-11-29T17:22:38.341Z,3.60
2022-11-29T17:25:39.770Z,3.50
2022-11-29T17:28:42.448Z,3.36
2022-11-29T17:31:46.000Z,3.26
2022-11-29T17:34:48.271Z,3.16
2022-11-29T17:37:49.845Z,3.11
2022-11-29T17:40:51.352Z,3.05
2022-11-29T17:43:55.326Z,3.02
2022-11-29T17:46:56.763Z,2.92
2022-11-29T17:49:58.284Z,2.87
2022-11-29T17:52:59.706Z,2.85
2022-11-29T17:56:03.508Z,2.84
2022-11-29T17:59:05.355Z,2.95
2022-11-29T18:02:06.959Z,3.13
2022-11-29T18:05:08.789Z,3.31
2022-11-29T18:08:10.260Z,3.45
2022-11-29T18:11:12.868Z,3.58
2022-11-29T18:14:16.497Z,3.75
2022-11-29T18:17:17.938Z,3.83
2022-11-29T18:20:19.377Z,3.92
2022-11-29T18:23:20.825Z,3.90
2022-11-29T18:26:24.667Z,3.82
2022-11-29T18:29:26.169Z,3.79
2022-11-29T18:37:27.554Z,3.73
2022-11-29T18:40:42.246Z,3.57
2022-11-29T18:43:44.291Z,3.50
2022-11-29T18:46:46.464Z,3.54
2022-11-29T18:49:47.902Z,3.54
2022-11-29T18:52:49.402Z,3.52
2022-11-29T18:55:59.971Z,3.46
2022-11-29T18:59:13.251Z,3.36
2022-11-29T19:02:14.703Z,3.25
2022-11-29T19:05:16.138Z,3.19
2022-11-29T19:08:17.619Z,3.16
2022-11-29T19:11:24.107Z,3.21
2022-11-29T19:14:25.589Z,3.34
2022-11-29T19:17:27.040Z,3.47
2022-11-29T19:20:28.519Z,3.60
2022-11-29T19:23:30.029Z,3.78
2022-11-29T19:26:32.651Z,3.79
2022-11-29T19:29:39.473Z,3.73
2022-11-29T19:32:41.387Z,3.80
2022-11-29T19:35:42.845Z,3.83
2022-11-29T19:38:48.854Z,3.84
2022-11-29T19:41:54.510Z,3.89
2022-11-29T19:45:15.829Z,3.94
2022-11-29T19:48:17.483Z,3.98
2022-11-29T19:51:19.985Z,4.00
2022-11-29T19:54:21.431Z,4.05
2022-11-29T19:57:22.948Z,4.11
2022-11-29T20:00:24.438Z,4.11
2022-11-29T20:03:25.906Z,4.08
2022-11-29T20:06:28.997Z,4.12
2022-11-29T20:09:30.469Z,4.19
2022-11-29T20:12:31.954Z,4.23
2022-11-29T20:15:33.391Z,4.29
2022-11-29T20:18:37.222Z,4.34
2022-11-29T20:21:44.721Z,4.39
2022-11-29T20:24:46.241Z,4.48
2022-11-29T20:27:47.643Z,4.55
2022-11-29T20:30:49.283Z,4.70
2022-11-29T20:33:53.055Z,4.66
2022-11-29T20:37:03.192Z,4.63
2022-11-29T20:40:19.222Z,4.63
2022-11-29T20:43:29.196Z,4.65
2022-11-29T20:46:31.116Z,4.67
2022-11-29T20:49:32.792Z,4.71
2022-11-29T20:53:01.696Z,4.75
2022-11-29T20:56:05.186Z,4.78
2022-11-29T20:59:06.639Z,4.79
2022-11-29T21:02:08.071Z,4.80
2022-11-29T21:05:10.044Z,4.81
2022-11-29T21:08:12.483Z,4.83
2022-11-29T21:11:14.376Z,4.84
2022-11-29T21:14:16.147Z,4.89
2022-11-29T21:17:17.988Z,4.87
2022-11-29T21:20:25.366Z,4.89
2022-11-29T21:24:00.523Z,4.89
2022-11-29T21:27:03.178Z,4.90
2022-11-29T21:30:13.430Z,4.92
2022-11-29T21:33:15.077Z,4.92
2022-11-29T21:36:16.763Z,4.96
2022-11-29T21:39:18.267Z,4.98
2022-11-29T21:42:21.752Z,5.01
2022-11-29T21:45:23.259Z,5.07
2022-11-29T21:48:24.720Z,5.10
2022-11-29T21:51:26.170Z,5.17
2022-11-29T21:54:28.759Z,5.17
2022-11-29T21:57:30.227Z,5.19
2022-11-29T22:00:37.178Z,5.19
2022-11-29T22:03:40.090Z,5.19
2022-11-29T22:06:41.529Z,5.21
2022-11-29T22:09:43.073Z,5.19
2022-11-29T22:12:51.890Z,5.22
2022-11-29T22:15:54.259Z,5.22
2022-11-29T22:18:55.822Z,5.23
2022-11-29T22:22:01.167Z,5.25
2022-11-29T22:25:02.578Z,5.27
2022-11-29T22:28:04.061Z,5.29
2022-11-29T22:31:10.984Z,5.31
2022-11-29T22:34:13.359Z,5.33
2022-11-29T22:37:14.867Z,5.33
2022-11-29T22:40:16.304Z,5.35
2022-11-29T22:43:17.722Z,5.40
2022-11-29T22:46:22.443Z,5.42
2022-11-29T22:49:23.954Z,5.41
2022-11-29T22:52:27.231Z,5.38
2022-11-29T22:55:28.692Z,5.33
2022-11-29T22:58:30.566Z,5.25
2022-11-29T23:01:34.095Z,5.09
2022-11-29T23:04:35.520Z,4.98
2022-11-29T23:07:36.942Z,4.84
2022-11-29T23:10:38.416Z,4.63
2022-11-29T23:13:41.967Z,4.41
2022-11-29T23:16:44.738Z,4.35
2022-11-29T23:19:46.269Z,4.33
2022-11-29T23:22:47.695Z,4.35
2022-11-29T23:25:50.038Z,4.42
2022-11-29T23:28:51.481Z,4.51
2022-11-29T23:31:52.932Z,4.60
2022-11-29T23:34:54.394Z,4.68
2022-11-29T23:37:55.837Z,4.75
2022-11-29T23:40:57.237Z,4.82
2022-11-29T23:43:58.687Z,4.89
2022-11-29T23:47:00.146Z,4.95
2022-11-29T23:50:01.609Z,5.02
2022-11-29T23:53:03.046Z,5.05
2022-11-29T23:56:11.665Z,5.08
2022-11-29T23:59:13.137Z,5.07
